Time;durP1;ratioP1;P1;durP2;ratioP2;P2;SDS_P1;SDS_P2;PMS_P1;PMS_P2;Temp;Humidity;BMP_temperature;BMP_pressure;BME280_temperature;BME280_humidity;BME280_pressure;Samples;Min_cycle;Max_cycle;Signal;HPM_P1;HPM_P2
2022/01/25 00:09:21;;;;;;;63.45;43.92;;;;;;;2.81;84.86;103259.25;5054101;28;20086;-68
2022/01/25 00:25:57;;;;;;;59.25;43.55;;;;;;;2.89;84.86;103268.53;5053396;28;20463;-68
2022/01/25 00:31:04;;;;;;;59.90;43.40;;;;;;;2.86;84.83;103253.53;5053675;28;20465;-68
2022/01/25 00:33:32;;;;;;;60.88;43.25;;;;;;;2.90;84.62;103263.06;5053240;28;20122;-68
2022/01/25 00:35:58;;;;;;;59.95;42.15;;;;;;;2.89;84.80;103271.19;5053530;28;20112;-68
2022/01/25 00:38:23;;;;;;;59.72;41.88;;;;;;;2.88;84.43;103258.78;5052984;28;20025;-67
2022/01/25 00:40:49;;;;;;;63.35;44.05;;;;;;;2.87;84.90;103265.09;5053147;28;20037;-68
2022/01/25 00:43:14;;;;;;;59.28;42.58;;;;;;;2.89;85.21;103258.66;5051846;28;20086;-68
2022/01/25 00:45:39;;;;;;;57.58;41.95;;;;;;;2.89;84.68;103261.34;5053628;28;20052;-68
2022/01/25 00:48:07;;;;;;;57.30;41.55;;;;;;;2.89;84.69;103257.81;5051918;28;20096;-68
2022/01/25 00:50:39;;;;;;;58.25;41.92;;;;;;;2.91;85.28;103271.91;5053042;28;20065;-68
2022/01/25 00:55:31;;;;;;;58.53;42.60;;;;;;;2.88;84.86;103259.63;5053185;28;20048;-67
2022/01/25 00:57:58;;;;;;;61.28;43.17;;;;;;;2.88;85.06;103258.78;5053367;28;20037;-68
2022/01/25 01:00:25;;;;;;;57.90;42.55;;;;;;;2.88;84.79;103243.56;5052228;28;20036;-67
2022/01/25 01:02:51;;;;;;;62.50;43.08;;;;;;;2.91;84.93;103246.00;5051578;28;20055;-68
2022/01/25 01:05:17;;;;;;;62.13;43.70;;;;;;;2.92;85.11;103257.59;5051565;28;20025;-67
2022/01/25 01:07:43;;;;;;;59.22;43.55;;;;;;;2.89;84.84;103245.28;5052912;28;20357;-68
2022/01/25 01:10:12;;;;;;;59.17;42.45;;;;;;;2.87;84.71;103257.94;5052955;28;20036;-68
2022/01/25 01:15:22;;;;;;;58.50;42.90;;;;;;;2.92;85.16;103254.91;5052783;28;20388;-68
2022/01/25 01:37:23;;;;;;;56.07;40.70;;;;;;;2.84;85.41;103268.88;5043849;28;20041;-68
2022/01/25 01:40:04;;;;;;;53.78;39.60;;;;;;;2.82;85.27;103262.75;5052417;28;20354;-67
2022/01/25 01:42:52;;;;;;;55.72;39.28;;;;;;;2.78;84.72;103269.31;5052193;28;20051;-68
2022/01/25 01:45:38;;;;;;;57.95;39.55;;;;;;;2.80;85.22;103272.72;5052095;28;20439;-68
2022/01/25 01:48:07;;;;;;;61.50;41.20;;;;;;;2.82;85.30;103268.09;5052345;28;20115;-68
2022/01/25 01:50:35;;;;;;;57.53;41.50;;;;;;;2.84;85.27;103266.19;5052140;28;20021;-67
2022/01/25 01:53:06;;;;;;;56.65;39.85;;;;;;;2.85;85.41;103270.53;5052293;28;20025;-68
2022/01/25 01:55:33;;;;;;;55.67;40.22;;;;;;;2.84;85.84;103266.19;5052354;28;20039;-68
2022/01/25 01:57:58;;;;;;;57.22;40.30;;;;;;;2.85;85.72;103270.53;5052195;28;20037;-67
2022/01/25 02:00:32;;;;;;;56.60;40.42;;;;;;;2.85;85.78;103275.91;5051792;28;20044;-67
2022/01/25 02:02:58;;;;;;;54.10;39.00;;;;;;;2.84;85.81;103276.88;5052201;28;20051;-67
2022/01/25 02:05:24;;;;;;;54.75;40.17;;;;;;;2.87;85.57;103273.97;5053131;28;20056;-67
2022/01/25 02:07:49;;;;;;;56.80;40.13;;;;;;;2.88;85.49;103267.66;5052284;28;20110;-68
2022/01/25 02:10:14;;;;;;;54.97;39.75;;;;;;;2.90;85.79;103259.50;5051057;28;20033;-67
2022/01/25 02:12:41;;;;;;;60.60;40.13;;;;;;;2.91;85.44;103258.53;5051729;28;20024;-68
2022/01/25 02:15:07;;;;;;;57.00;39.47;;;;;;;2.89;85.75;103261.34;5050522;28;20037;-67
2022/01/25 02:17:56;;;;;;;56.38;37.42;;;;;;;2.89;85.38;103257.81;5052014;28;20041;-68
2022/01/25 02:23:18;;;;;;;59.28;40.25;;;;;;;2.91;86.07;103254.03;5071788;28;20122;-67
2022/01/25 02:25:44;;;;;;;59.47;40.83;;;;;;;2.90;85.59;103255.03;5068745;28;20024;-69
2022/01/25 02:28:09;;;;;;;55.00;39.05;;;;;;;2.93;85.71;103249.44;5053558;28;20468;-69
2022/01/25 02:30:34;;;;;;;54.10;39.08;;;;;;;2.90;85.66;103252.34;5051674;28;20029;-69
2022/01/25 02:32:59;;;;;;;54.92;40.03;;;;;;;2.91;85.94;103246.00;5051861;28;20025;-69
2022/01/25 02:35:25;;;;;;;57.63;39.38;;;;;;;2.92;85.76;103250.41;5066653;28;20032;-69
2022/01/25 02:37:50;;;;;;;55.78;39.40;;;;;;;2.94;85.88;103248.47;5056081;28;20112;-70
2022/01/25 02:40:16;;;;;;;53.92;39.25;;;;;;;2.93;86.25;103241.41;5052530;28;20037;-72
2022/01/25 02:42:41;;;;;;;56.85;40.75;;;;;;;2.95;85.91;103238.63;5058189;28;20037;-68
2022/01/25 02:45:11;;;;;;;53.63;37.95;;;;;;;2.96;85.99;103235.84;5075453;28;20032;-68
2022/01/25 02:50:20;;;;;;;58.17;39.67;;;;;;;2.98;85.54;103231.22;5065188;28;20090;-68
2022/01/25 02:52:45;;;;;;;53.78;38.72;;;;;;;3.00;85.82;103245.34;5073416;28;20071;-69
2022/01/25 02:55:11;;;;;;;54.42;40.13;;;;;;;2.95;86.03;103236.81;5075512;28;20025;-67
2022/01/25 02:57:36;;;;;;;57.65;40.97;;;;;;;3.01;85.54;103239.00;5073027;28;20111;-69
2022/01/25 03:00:07;;;;;;;58.88;40.70;;;;;;;3.00;85.78;103233.78;5068158;28;20464;-71
2022/01/25 03:02:32;;;;;;;58.03;40.40;;;;;;;3.01;85.53;103236.34;5060612;28;20047;-70
2022/01/25 03:04:57;;;;;;;58.65;41.08;;;;;;;3.01;85.92;103227.47;5075383;28;20041;-68
2022/01/25 03:07:23;;;;;;;55.63;39.63;;;;;;;3.01;85.62;103232.81;5063613;28;20080;-68
2022/01/25 03:09:51;;;;;;;55.58;39.88;;;;;;;3.01;85.69;103228.31;5055302;28;20489;-70
2022/01/25 03:12:19;;;;;;;61.58;41.78;;;;;;;3.03;85.98;103225.53;5055193;28;20039;-70
2022/01/25 03:15:10;;;;;;;60.83;42.50;;;;;;;3.04;86.10;103221.03;5055070;28;20091;-70
2022/01/25 03:17:32;;;;;;;66.60;42.38;;;;;;;3.07;85.96;103227.00;5074055;28;20036;-70
2022/01/25 03:20:07;;;;;;;68.22;46.63;;;;;;;3.05;85.71;103215.56;5074417;28;20036;-69
2022/01/25 03:23:19;;;;;;;69.15;46.83;;;;;;;3.09;86.01;103213.50;5066068;28;20087;-75
2022/01/25 03:25:18;;;;;;;69.30;47.15;;;;;;;3.08;85.92;103218.00;5070514;28;20223;-71
2022/01/25 03:27:43;;;;;;;72.50;49.15;;;;;;;3.10;85.40;103210.72;5073186;28;20471;-68
2022/01/25 03:30:09;;;;;;;72.93;49.22;;;;;;;3.11;85.37;103217.78;5069402;28;20030;-72
2022/01/25 03:32:34;;;;;;;74.00;49.80;;;;;;;3.12;85.28;103223.97;5073864;28;20033;-70
2022/01/25 03:34:59;;;;;;;72.80;49.33;;;;;;;3.16;84.86;103220.09;5073888;28;20074;-71
2022/01/25 03:37:24;;;;;;;71.72;48.42;;;;;;;3.12;85.12;103215.94;5072611;28;20523;-72
2022/01/25 03:39:50;;;;;;;69.60;48.55;;;;;;;3.17;85.55;103211.06;5072570;28;20036;-73
2022/01/25 03:42:16;;;;;;;69.50;48.13;;;;;;;3.19;85.18;103206.47;5074935;28;20029;-72
2022/01/25 03:44:42;;;;;;;71.38;47.53;;;;;;;3.18;85.06;103202.94;5074348;28;20060;-69
2022/01/25 03:47:12;;;;;;;66.85;46.08;;;;;;;3.17;84.58;103205.72;5074509;28;20052;-71
2022/01/25 03:49:52;;;;;;;71.72;46.83;;;;;;;3.17;85.03;103213.75;5074286;28;20036;-69
2022/01/25 03:52:32;;;;;;;66.85;45.60;;;;;;;3.19;85.39;103210.00;5074509;28;20029;-72
2022/01/25 03:54:58;;;;;;;71.65;46.33;;;;;;;3.16;84.85;103212.91;5074347;28;20028;-68
2022/01/25 03:57:25;;;;;;;66.00;44.97;;;;;;;3.16;85.49;103214.75;5074171;28;20050;-72
2022/01/25 03:59:51;;;;;;;66.65;44.72;;;;;;;3.17;85.18;103216.44;5073033;28;20112;-71
2022/01/25 04:02:17;;;;;;;65.28;42.55;;;;;;;3.15;85.24;103213.88;5071737;28;20131;-73
2022/01/25 04:04:42;;;;;;;58.65;42.67;;;;;;;3.12;85.30;103215.94;5073765;28;20036;-70
2022/01/25 04:07:10;;;;;;;63.22;43.90;;;;;;;3.09;85.29;103224.19;5074189;28;20115;-71
2022/01/25 04:09:37;;;;;;;66.38;43.42;;;;;;;3.06;85.66;103214.59;5073884;28;20032;-70
2022/01/25 04:12:03;;;;;;;61.30;42.33;;;;;;;3.10;85.07;103225.91;5074074;28;20487;-69
2022/01/25 04:14:29;;;;;;;58.33;41.15;;;;;;;3.03;85.59;103222.84;5073658;28;20036;-73
2022/01/25 04:17:07;;;;;;;57.92;40.75;;;;;;;3.01;85.81;103220.28;5074034;28;20035;-72
2022/01/25 04:19:41;;;;;;;59.67;41.20;;;;;;;3.01;85.92;103222.97;5073720;28;20020;-69
2022/01/25 04:27:30;;;;;;;55.60;38.83;;;;;;;3.08;85.81;103211.78;5073682;28;20040;-72
2022/01/25 04:29:55;;;;;;;57.15;39.17;;;;;;;3.00;85.57;103213.25;5073766;28;20476;-70
2022/01/25 04:32:32;;;;;;;55.80;38.53;;;;;;;3.03;85.73;103214.81;5073655;28;20055;-72
2022/01/25 04:35:13;;;;;;;55.40;39.42;;;;;;;3.06;85.91;103208.38;5073569;28;20368;-72
2022/01/25 04:51:38;;;;;;;55.38;39.45;;;;;;;3.01;86.21;103209.59;5073080;28;20242;-71
2022/01/25 04:54:12;;;;;;;54.20;39.33;;;;;;;2.97;86.27;103210.78;5073284;28;20024;-69
2022/01/25 04:56:46;;;;;;;57.00;40.42;;;;;;;3.00;85.95;103205.22;5073035;28;20029;-72
2022/01/25 04:59:21;;;;;;;57.90;39.95;;;;;;;2.99;86.44;103198.16;5073105;28;20082;-73
2022/01/25 05:01:48;;;;;;;56.33;38.03;;;;;;;3.01;86.28;103201.56;5070505;28;20317;-71
2022/01/25 05:04:21;;;;;;;57.30;38.72;;;;;;;3.04;86.05;103199.63;5071799;28;20028;-70
2022/01/25 05:06:49;;;;;;;57.00;38.80;;;;;;;3.06;86.52;103201.22;5071094;28;20032;-74
2022/01/25 05:09:16;;;;;;;58.50;40.13;;;;;;;3.05;86.26;103193.31;5071695;28;20318;-71
2022/01/25 05:11:46;;;;;;;56.70;39.45;;;;;;;3.06;86.48;103195.00;5071391;28;20024;-69
2022/01/25 05:14:17;;;;;;;57.25;39.55;;;;;;;3.05;86.12;103196.84;5071195;28;20120;-71
2022/01/25 05:17:01;;;;;;;57.35;40.47;;;;;;;3.05;86.58;103199.53;5072628;28;20039;-73
2022/01/25 05:22:06;;;;;;;;;;;;;;;3.19;85.93;103193.94;5073280;28;20032;-70
2022/01/25 05:24:34;;;;;;;56.47;39.40;;;;;;;3.09;85.75;103194.78;5072171;28;19909;-70
2022/01/25 05:26:59;;;;;;;60.20;39.38;;;;;;;3.06;86.26;103192.34;5072621;28;20034;-70
2022/01/25 05:29:25;;;;;;;56.42;39.53;;;;;;;3.07;85.91;103191.38;5072989;28;20448;-69
2022/01/25 05:31:50;;;;;;;59.83;39.88;;;;;;;3.06;86.68;103192.34;5071117;28;20039;-71
2022/01/25 05:34:15;;;;;;;58.15;39.55;;;;;;;3.06;86.75;103187.00;5072588;28;20082;-71
2022/01/25 05:36:43;;;;;;;60.78;38.95;;;;;;;3.10;86.51;103188.47;5072372;28;20514;-70
2022/01/25 05:39:15;;;;;;;56.28;39.00;;;;;;;3.06;86.68;103190.50;5072589;28;20070;-69
2022/01/25 05:41:41;;;;;;;;;;;;;;;3.20;86.14;103194.78;5072818;28;20021;-72
2022/01/25 05:49:23;;;;;;;57.42;39.63;;;;;;;3.07;86.17;103194.91;5072548;28;20468;-72
2022/01/25 05:51:49;;;;;;;61.10;40.35;;;;;;;3.09;86.53;103189.44;5070901;28;20044;-69
2022/01/25 05:54:14;;;;;;;62.80;41.38;;;;;;;3.09;86.45;103192.94;5072383;28;20106;-70
2022/01/25 05:56:40;;;;;;;64.05;43.28;;;;;;;3.11;86.47;103190.16;5072183;28;20029;-71
2022/01/25 05:59:05;;;;;;;59.58;41.00;;;;;;;3.08;86.47;103185.91;5072665;28;20029;-71
2022/01/25 06:01:32;;;;;;;61.03;41.15;;;;;;;3.11;86.69;103192.81;5069506;28;20033;-70
2022/01/25 06:03:57;;;;;;;72.47;46.35;;;;;;;3.09;86.15;103184.06;5072366;28;20377;-71
2022/01/25 06:06:23;;;;;;;76.97;48.53;;;;;;;3.12;86.07;103179.34;5072351;28;20030;-70
2022/01/25 06:08:48;;;;;;;71.43;46.10;;;;;;;3.16;86.43;103188.84;5072118;28;20037;-70
2022/01/25 06:11:13;;;;;;;71.85;47.28;;;;;;;3.20;85.73;103189.44;5072043;28;20119;-72
2022/01/25 06:13:38;;;;;;;78.55;49.22;;;;;;;3.23;85.92;103189.22;5071714;28;20028;-67
2022/01/25 06:16:04;;;;;;;75.65;49.13;;;;;;;3.22;84.65;103184.84;5071008;28;20111;-72
2022/01/25 06:18:29;;;;;;;81.00;49.65;;;;;;;3.24;85.10;103180.22;5073719;28;20029;-71
2022/01/25 06:20:54;;;;;;;72.10;46.40;;;;;;;3.23;85.53;103188.34;5074688;28;20529;-72
2022/01/25 06:23:20;;;;;;;75.97;49.15;;;;;;;3.23;85.31;103183.88;5074607;28;20028;-71
2022/01/25 06:25:45;;;;;;;74.18;48.65;;;;;;;3.23;85.55;103191.03;5074615;28;20037;-70
2022/01/25 06:28:10;;;;;;;78.50;50.45;;;;;;;3.24;85.13;103180.22;5076048;28;20448;-70
2022/01/25 06:30:36;;;;;;;78.70;49.55;;;;;;;3.23;85.10;103186.56;5075830;28;20032;-72
2022/01/25 06:33:01;;;;;;;78.68;49.85;;;;;;;3.25;85.09;103187.28;5075923;28;20502;-69
2022/01/25 06:35:29;;;;;;;82.75;50.70;;;;;;;3.24;84.99;103185.56;5075883;28;20028;-70
2022/01/25 06:37:54;;;;;;;79.38;50.47;;;;;;;3.26;85.08;103186.31;5075758;28;20020;-69
2022/01/25 06:40:20;;;;;;;82.88;50.38;;;;;;;3.28;85.19;103192.38;5074604;28;20031;-71
2022/01/25 06:42:45;;;;;;;78.50;50.38;;;;;;;3.25;85.01;103192.63;5074306;28;20029;-67
2022/01/25 06:45:15;;;;;;;82.78;48.42;;;;;;;3.28;85.11;103186.19;5075726;28;20391;-68
2022/01/25 06:47:41;;;;;;;71.30;46.67;;;;;;;3.27;85.55;103196.03;5075309;28;20028;-70
2022/01/25 06:50:07;;;;;;;77.95;47.20;;;;;;;3.26;85.37;103193.47;5074637;28;20043;-71
2022/01/25 06:52:36;;;;;;;71.10;45.83;;;;;;;3.27;85.55;103187.16;5075613;28;20025;-69
2022/01/25 06:55:02;;;;;;;73.32;46.83;;;;;;;3.28;85.16;103192.38;5075467;28;20025;-69
2022/01/25 06:57:28;;;;;;;74.30;48.60;;;;;;;3.27;85.23;103192.50;5075465;28;20028;-71
2022/01/25 06:59:53;;;;;;;76.18;49.20;;;;;;;3.26;85.34;103196.16;5075170;28;20391;-70
2022/01/25 07:02:19;;;;;;;68.95;47.25;;;;;;;3.22;85.07;103192.03;5071286;28;20049;-68
2022/01/25 07:04:44;;;;;;;78.40;48.40;;;;;;;3.24;85.26;103204.28;5075176;28;20037;-70
2022/01/25 07:07:09;;;;;;;77.10;48.10;;;;;;;3.25;85.31;103203.34;5075280;28;20027;-71
2022/01/25 07:09:35;;;;;;;77.78;48.45;;;;;;;3.25;85.42;103208.69;5075050;28;20028;-67
2022/01/25 07:12:01;;;;;;;77.43;47.38;;;;;;;3.25;85.53;103203.34;5073874;28;20123;-71
2022/01/25 07:14:26;;;;;;;75.47;47.70;;;;;;;3.29;85.54;103215.50;5074815;28;20107;-70
2022/01/25 07:16:51;;;;;;;74.20;48.83;;;;;;;3.29;85.72;103214.63;5075143;28;20020;-68
2022/01/25 07:19:16;;;;;;;78.40;49.05;;;;;;;3.29;85.03;103206.63;5074846;28;20032;-67
2022/01/25 07:21:42;;;;;;;79.35;50.30;;;;;;;3.28;84.19;103205.78;5074806;28;20641;-71
2022/01/25 07:24:07;;;;;;;81.47;50.65;;;;;;;3.32;84.20;103209.03;5075005;28;20036;-72
2022/01/25 07:26:32;;;;;;;82.00;52.20;;;;;;;3.31;84.16;103202.84;5074986;28;20024;-71
2022/01/25 07:28:58;;;;;;;83.63;51.78;;;;;;;3.35;83.74;103211.47;5074343;28;20039;-68
2022/01/25 07:31:23;;;;;;;77.90;50.40;;;;;;;3.35;83.36;103207.00;5074589;28;20460;-71
2022/01/25 07:33:48;;;;;;;79.80;51.90;;;;;;;3.35;82.45;103212.34;5074560;28;20028;-68
2022/01/25 07:36:14;;;;;;;83.20;50.95;;;;;;;3.34;82.41;103210.66;5074849;28;20399;-70
2022/01/25 07:38:39;;;;;;;80.68;50.80;;;;;;;3.35;82.66;103212.34;5074548;28;20024;-71
2022/01/25 07:41:04;;;;;;;81.30;50.92;;;;;;;3.37;82.74;103210.41;5075007;28;20361;-70
2022/01/25 07:43:29;;;;;;;79.05;50.53;;;;;;;3.42;82.67;103214.56;5074401;28;20029;-71
2022/01/25 07:45:56;;;;;;;83.60;51.83;;;;;;;3.40;82.48;103211.13;5074386;28;20033;-70
2022/01/25 07:48:22;;;;;;;84.03;51.90;;;;;;;3.44;82.69;103217.97;5072935;28;20056;-71
2022/01/25 07:50:48;;;;;;;83.30;53.45;;;;;;;3.44;82.48;103223.31;5074041;28;20063;-68
2022/01/25 07:53:14;;;;;;;80.80;52.60;;;;;;;3.39;81.21;103220.16;5074487;28;20036;-72
2022/01/25 07:55:39;;;;;;;78.13;51.97;;;;;;;3.40;81.72;103220.03;5074293;28;20123;-71
2022/01/25 07:58:05;;;;;;;84.18;54.67;;;;;;;3.41;81.77;103215.50;5074498;28;20025;-70
2022/01/25 08:00:30;;;;;;;90.63;54.60;;;;;;;3.39;81.24;103220.16;5072523;28;20029;-70
2022/01/25 08:02:56;;;;;;;81.78;53.00;;;;;;;3.37;81.35;103221.09;5073379;28;20078;-69
2022/01/25 08:05:24;;;;;;;81.93;52.63;;;;;;;3.37;81.27;103212.25;5074254;28;20028;-70
2022/01/25 08:07:49;;;;;;;85.70;54.53;;;;;;;3.38;81.58;103213.91;5073657;28;20364;-71
2022/01/25 08:10:14;;;;;;;87.38;53.92;;;;;;;3.37;80.87;103215.75;5074156;28;20031;-70
2022/01/25 08:12:40;;;;;;;82.07;53.00;;;;;;;3.41;81.57;103213.69;5073921;28;20349;-72
2022/01/25 08:15:06;;;;;;;83.25;54.30;;;;;;;3.44;81.37;103212.59;5072397;28;20029;-71
2022/01/25 08:17:32;;;;;;;84.60;53.95;;;;;;;3.46;81.19;103205.31;5073992;28;20028;-69
2022/01/25 08:19:57;;;;;;;87.45;53.78;;;;;;;3.47;82.03;103213.22;5073723;28;20037;-70
2022/01/25 08:22:24;;;;;;;84.95;53.58;;;;;;;3.48;81.93;103214.06;5073612;28;20024;-68
2022/01/25 08:24:50;;;;;;;83.20;53.13;;;;;;;3.48;81.55;103222.94;5073877;28;20032;-73
2022/01/25 08:27:17;;;;;;;85.53;54.13;;;;;;;3.46;80.42;103218.72;5073842;28;20111;-71
2022/01/25 08:29:42;;;;;;;86.40;54.83;;;;;;;3.47;80.95;103223.94;5072320;28;20028;-70
2022/01/25 08:32:08;;;;;;;83.75;54.08;;;;;;;3.46;80.26;103229.41;5073764;28;20468;-70
2022/01/25 08:34:33;;;;;;;87.03;54.92;;;;;;;3.45;80.39;103227.69;5072248;28;20024;-69
2022/01/25 08:36:58;;;;;;;90.40;55.70;;;;;;;3.48;80.71;103230.13;5073314;28;20025;-69
2022/01/25 08:39:26;;;;;;;84.78;55.22;;;;;;;3.47;80.62;103231.09;5072015;28;20171;-68
2022/01/25 08:41:52;;;;;;;84.13;53.90;;;;;;;3.48;80.66;103230.13;5072228;28;20028;-71
2022/01/25 08:44:17;;;;;;;82.80;53.63;;;;;;;3.50;80.75;103228.19;5073189;28;20400;-67
2022/01/25 08:46:43;;;;;;;86.45;54.45;;;;;;;3.51;80.89;103230.75;5072862;28;20025;-69
2022/01/25 08:49:08;;;;;;;93.50;57.75;;;;;;;3.47;79.64;103223.94;5073153;28;20075;-71
2022/01/25 08:51:34;;;;;;;100.07;59.72;;;;;;;3.41;79.72;103231.56;5072114;28;20036;-71
2022/01/25 08:53:59;;;;;;;102.20;61.63;;;;;;;3.39;79.42;103225.50;5072696;28;20423;-70
2022/01/25 08:56:24;;;;;;;101.25;62.53;;;;;;;3.40;80.02;103227.19;5073266;28;20032;-71
2022/01/25 08:58:50;;;;;;;103.93;63.97;;;;;;;3.42;80.21;103236.81;5071398;28;20484;-69
2022/01/25 09:01:15;;;;;;;105.45;64.75;;;;;;;3.45;80.80;103231.22;5070227;28;20070;-70
2022/01/25 09:03:40;;;;;;;109.05;64.03;;;;;;;3.45;79.94;103235.72;5072705;28;20045;-67
2022/01/25 09:06:06;;;;;;;102.85;64.82;;;;;;;3.46;80.07;103240.13;5071501;28;20028;-70
2022/01/25 09:08:32;;;;;;;106.55;64.22;;;;;;;3.46;80.34;103240.97;5072662;28;20028;-68
2022/01/25 09:10:59;;;;;;;109.32;63.92;;;;;;;3.50;79.73;103233.53;5071067;28;20047;-69
2022/01/25 09:13:25;;;;;;;110.63;67.03;;;;;;;3.52;80.25;103234.28;5072548;28;20077;-68
2022/01/25 09:15:51;;;;;;;108.90;65.50;;;;;;;3.57;80.11;103242.81;5071366;28;20024;-66
2022/01/25 09:18:17;;;;;;;105.47;66.60;;;;;;;3.55;80.17;103240.25;5073196;28;20024;-71
2022/01/25 09:20:43;;;;;;;108.18;66.57;;;;;;;3.60;80.22;103239.88;5072626;28;20040;-71
2022/01/25 09:23:08;;;;;;;109.30;67.03;;;;;;;3.62;80.17;103237.09;5071488;28;20036;-67
2022/01/25 09:25:34;;;;;;;112.05;68.35;;;;;;;3.61;79.69;103246.06;5072762;28;20028;-71
2022/01/25 09:28:00;;;;;;;112.20;71.25;;;;;;;3.57;79.52;103240.13;5072820;28;20024;-70
2022/01/25 09:30:26;;;;;;;113.43;68.25;;;;;;;3.58;80.13;103235.59;5071116;28;20036;-69
2022/01/25 09:32:51;;;;;;;112.18;71.25;;;;;;;3.60;80.22;103253.28;5072473;28;20033;-71
2022/01/25 09:35:17;;;;;;;117.97;73.70;;;;;;;3.60;79.66;103245.25;5072566;28;20028;-68
2022/01/25 09:37:43;;;;;;;121.15;71.68;;;;;;;3.61;79.91;103243.41;5072588;28;20032;-72
2022/01/25 09:40:09;;;;;;;115.20;70.07;;;;;;;3.62;79.59;103251.31;5071035;28;20036;-71
2022/01/25 09:42:35;;;;;;;118.88;71.93;;;;;;;3.62;80.14;103243.28;5072545;28;20452;-69
2022/01/25 09:45:00;;;;;;;122.90;73.30;;;;;;;3.66;80.50;103254.63;5071962;28;20033;-70
2022/01/25 09:47:26;;;;;;;116.40;72.40;;;;;;;3.66;79.98;103242.06;5072390;28;20028;-71
2022/01/25 09:49:51;;;;;;;121.57;74.45;;;;;;;3.69;79.89;103249.88;5072088;28;20035;-72
2022/01/25 09:52:18;;;;;;;120.80;74.82;;;;;;;3.70;79.89;103248.06;5072391;28;20525;-70
2022/01/25 09:54:53;;;;;;;124.32;74.07;;;;;;;3.68;79.15;103256.22;5072205;28;20518;-71
2022/01/25 09:57:18;;;;;;;119.28;70.50;;;;;;;3.65;78.84;103261.78;5072583;28;20033;-69
2022/01/25 09:59:44;;;;;;;117.38;70.03;;;;;;;3.61;78.69;103263.03;5070907;28;20460;-70
2022/01/25 10:02:09;;;;;;;114.95;71.53;;;;;;;3.58;78.55;103257.91;5069333;28;20053;-69
2022/01/25 10:04:41;;;;;;;111.53;69.55;;;;;;;3.56;78.89;103259.81;5071996;28;20028;-72
2022/01/25 10:07:09;;;;;;;112.82;68.88;;;;;;;3.53;77.99;103260.94;5072175;28;20240;-71
2022/01/25 10:09:38;;;;;;;104.90;67.65;;;;;;;3.54;78.75;103267.97;5072193;28;20031;-71
2022/01/25 10:12:21;;;;;;;110.10;66.97;;;;;;;3.60;79.63;103255.94;5071587;28;20036;-70
2022/01/25 10:15:01;;;;;;;105.05;65.38;;;;;;;3.68;79.52;103258.91;5071806;28;20028;-71
2022/01/25 10:17:34;;;;;;;107.70;67.15;;;;;;;3.70;79.72;103270.31;5072067;28;20029;-72
2022/01/25 10:19:59;;;;;;;106.88;66.15;;;;;;;3.77;79.65;103264.50;5072119;28;20040;-70
2022/01/25 10:22:25;;;;;;;103.90;64.05;;;;;;;3.75;78.77;103263.78;5071691;28;20387;-69
2022/01/25 10:24:50;;;;;;;104.20;64.97;;;;;;;3.78;78.63;103263.53;5071692;28;20029;-68
2022/01/25 10:27:16;;;;;;;107.43;65.65;;;;;;;3.80;78.90;103266.94;5071748;28;20295;-70
2022/01/25 10:29:41;;;;;;;103.75;66.10;;;;;;;3.78;78.50;103268.88;5071636;28;20501;-69
2022/01/25 10:32:10;;;;;;;104.82;66.97;;;;;;;3.79;78.82;103265.22;5071773;28;20043;-72
2022/01/25 10:34:45;;;;;;;106.22;65.32;;;;;;;3.80;78.11;103261.56;5071830;28;20035;-72
2022/01/25 10:37:12;;;;;;;102.88;66.25;;;;;;;3.80;78.20;103262.41;5070286;28;20077;-69
2022/01/25 10:39:44;;;;;;;108.05;67.28;;;;;;;3.82;78.39;103262.28;5071903;28;20020;-69
2022/01/25 10:42:21;;;;;;;108.07;67.13;;;;;;;3.86;78.97;103259.25;5071613;28;20484;-71
2022/01/25 10:44:56;;;;;;;103.30;65.50;;;;;;;3.85;78.47;103264.72;5070581;28;20055;-69
2022/01/25 10:47:42;;;;;;;102.93;66.00;;;;;;;3.90;78.67;103258.03;5071943;28;20071;-69
2022/01/25 10:50:34;;;;;;;107.15;66.55;;;;;;;3.97;78.99;103261.09;5071505;28;20039;-70
2022/01/25 10:53:06;;;;;;;106.40;66.22;;;;;;;3.95;78.60;103260.34;5070961;28;20037;-67
2022/01/25 10:55:40;;;;;;;107.50;66.25;;;;;;;3.99;78.58;103253.78;5071599;28;20031;-72
2022/01/25 10:58:05;;;;;;;100.43;64.57;;;;;;;4.02;78.00;103253.53;5071473;28;20028;-70
2022/01/25 11:00:33;;;;;;;104.93;64.57;;;;;;;4.01;77.79;103259.03;5069644;28;20086;-68
2022/01/25 11:02:59;;;;;;;105.38;64.95;;;;;;;4.03;78.04;103255.25;5069824;28;20052;-68
2022/01/25 11:05:25;;;;;;;102.22;63.60;;;;;;;4.03;78.35;103247.22;5074567;28;20036;-70
2022/01/25 11:07:50;;;;;;;104.75;66.72;;;;;;;4.10;77.91;103262.78;5074975;28;20224;-67
2022/01/25 11:10:19;;;;;;;106.10;65.68;;;;;;;4.08;78.40;103261.09;5075201;28;20282;-71
2022/01/25 11:13:07;;;;;;;104.75;65.72;;;;;;;4.12;77.18;103261.69;5075168;28;20057;-71
2022/01/25 11:15:32;;;;;;;98.90;64.30;;;;;;;4.14;77.75;103259.75;5075191;28;20056;-68
2022/01/25 11:17:57;;;;;;;103.20;65.35;;;;;;;4.15;77.44;103257.91;5073662;28;20067;-72
2022/01/25 11:20:22;;;;;;;106.70;66.68;;;;;;;4.16;78.38;103271.19;5075172;28;20056;-69
2022/01/25 11:22:49;;;;;;;101.15;63.72;;;;;;;4.15;76.77;103276.66;5073854;28;20032;-72
2022/01/25 11:25:18;;;;;;;103.90;66.55;;;;;;;4.11;77.38;103269.84;5075047;28;20040;-71
2022/01/25 11:27:45;;;;;;;108.88;69.32;;;;;;;3.98;76.24;103262.78;5074595;28;20025;-69
2022/01/25 11:30:18;;;;;;;104.88;67.28;;;;;;;3.97;77.51;103266.47;5073290;28;20421;-72
2022/01/25 11:32:45;;;;;;;103.80;66.50;;;;;;;3.96;77.42;103264.75;5073579;28;20028;-67
2022/01/25 11:35:14;;;;;;;109.30;69.22;;;;;;;3.91;77.39;103256.22;5073149;28;20430;-71
2022/01/25 11:37:46;;;;;;;107.15;67.82;;;;;;;3.95;77.61;103260.34;5074971;28;20097;-71
2022/01/25 11:40:37;;;;;;;103.85;66.97;;;;;;;3.93;77.35;103262.31;5074556;28;20024;-69
2022/01/25 11:43:07;;;;;;;105.72;67.15;;;;;;;3.89;77.22;103264.38;5074545;28;20037;-69
2022/01/25 11:45:35;;;;;;;102.97;65.00;;;;;;;3.87;76.88;103262.78;5073433;28;20064;-69
2022/01/25 11:48:02;;;;;;;106.45;67.53;;;;;;;3.88;77.83;103261.81;5074201;28;20064;-69
2022/01/25 11:50:36;;;;;;;112.60;67.93;;;;;;;3.90;78.12;103251.84;5074334;28;20532;-68
2022/01/25 11:53:06;;;;;;;103.38;66.22;;;;;;;3.92;77.20;103255.25;5074086;28;20103;-69
2022/01/25 11:55:34;;;;;;;100.65;66.38;;;;;;;3.90;77.00;103257.19;5074131;28;20017;-66
2022/01/25 11:58:13;;;;;;;99.50;63.30;;;;;;;3.88;76.68;103261.81;5074019;28;20040;-69
2022/01/25 12:00:45;;;;;;;99.70;64.78;;;;;;;3.85;76.07;103257.56;5071944;28;20372;-68
2022/01/25 12:03:28;;;;;;;101.10;64.85;;;;;;;3.84;76.33;103255.84;5074140;28;20072;-69
2022/01/25 12:06:06;;;;;;;106.60;63.53;;;;;;;3.86;76.34;103251.22;5074114;28;20025;-68
2022/01/25 12:11:52;;;;;;;106.25;66.43;;;;;;;3.96;77.13;103251.34;5074281;28;20380;-68
2022/01/25 12:14:29;;;;;;;102.32;64.65;;;;;;;4.01;77.29;103246.47;5072247;28;20044;-70
2022/01/25 12:17:03;;;;;;;110.43;66.50;;;;;;;4.04;77.24;103243.53;5072734;28;20040;-70
2022/01/25 12:19:50;;;;;;;105.28;66.13;;;;;;;4.11;77.03;103243.03;5074004;28;20055;-69
2022/01/25 12:22:36;;;;;;;106.30;64.65;;;;;;;4.10;76.70;103244.03;5073631;28;20039;-70
2022/01/25 12:25:34;;;;;;;104.60;65.82;;;;;;;4.15;77.44;103250.75;5073644;28;20070;-70
2022/01/25 12:28:07;;;;;;;107.15;65.97;;;;;;;4.13;76.37;103241.13;5073060;28;20032;-70
2022/01/25 12:30:44;;;;;;;111.68;66.75;;;;;;;4.16;77.14;103238.19;5073725;28;20460;-70
2022/01/25 12:33:15;;;;;;;101.75;64.05;;;;;;;4.19;77.30;103237.94;5073502;28;20025;-71
2022/01/25 12:35:44;;;;;;;114.47;66.90;;;;;;;4.20;76.40;103234.28;5073607;28;20456;-68
2022/01/25 12:38:24;;;;;;;103.75;64.47;;;;;;;4.22;76.87;103232.31;5072028;28;20379;-72
2022/01/25 12:40:55;;;;;;;101.97;65.88;;;;;;;4.20;77.23;103231.59;5073568;28;20103;-71
2022/01/25 12:43:30;;;;;;;103.68;65.60;;;;;;;4.19;76.69;103229.91;5072265;28;20029;-67
2022/01/25 12:46:07;;;;;;;103.18;64.82;;;;;;;4.13;76.02;103220.50;5072323;28;20372;-67